createdAt,value
2022-08-28T00:01:57.435Z,98154.00
2022-08-28T00:04:30.209Z,98160.72
2022-08-28T00:07:04.088Z,98166.84
2022-08-28T00:09:30.589Z,98166.25
2022-08-28T00:12:04.074Z,98164.59
2022-08-28T00:14:37.066Z,98166.25
2022-08-28T00:17:04.207Z,98158.25
2022-08-28T00:19:38.778Z,98168.69
2022-08-28T00:22:13.116Z,98152.16
2022-08-28T00:24:51.078Z,98160.00
2022-08-28T00:27:46.070Z,98168.22
2022-08-28T00:30:12.798Z,98161.41
2022-08-28T00:32:46.079Z,98163.06
2022-08-28T00:35:12.653Z,98166.25
2022-08-28T00:37:48.138Z,98162.47
2022-08-28T00:40:32.336Z,98169.75
2022-08-28T00:43:07.199Z,98176.69
2022-08-28T00:45:41.156Z,98175.59
2022-08-28T00:48:08.186Z,98169.75
2022-08-28T00:51:02.084Z,98173.72
2022-08-28T00:53:36.200Z,98179.38
2022-08-28T00:56:09.461Z,98175.94
2022-08-28T00:58:49.081Z,98177.47
2022-08-28T01:01:17.441Z,98182.59
2022-08-28T01:03:51.103Z,98180.66
2022-08-28T01:06:20.599Z,98178.53
2022-08-28T01:08:56.110Z,98172.25
2022-08-28T01:11:25.943Z,98176.31
2022-08-28T01:14:01.985Z,98170.22
2022-08-28T01:16:33.052Z,98169.84
2022-08-28T01:19:08.084Z,98170.75
2022-08-28T01:21:45.900Z,98169.53
2022-08-28T01:24:21.076Z,98162.81
2022-08-28T01:26:47.788Z,98171.50
2022-08-28T01:29:21.072Z,98167.81
2022-08-28T01:31:48.924Z,98174.25
2022-08-28T01:34:22.108Z,98176.59
2022-08-28T01:36:48.853Z,98177.19
2022-08-28T01:39:23.095Z,98175.69
2022-08-28T01:41:52.068Z,98177.09
2022-08-28T01:44:33.171Z,98172.91
2022-08-28T01:47:06.265Z,98180.56
2022-08-28T01:49:40.062Z,98180.13
2022-08-28T01:52:06.933Z,98188.19
2022-08-28T01:54:40.109Z,98185.72
2022-08-28T01:57:14.112Z,98202.34
2022-08-28T01:59:47.147Z,98226.19
2022-08-28T02:02:14.124Z,98222.44
2022-08-28T02:04:48.441Z,98226.44
2022-08-28T02:07:23.066Z,98243.19
2022-08-28T02:09:49.753Z,98260.00
2022-08-28T02:12:23.110Z,98273.34
2022-08-28T02:14:49.756Z,98291.00
2022-08-28T02:17:23.071Z,98308.59
2022-08-28T02:19:49.652Z,98321.84
2022-08-28T02:22:23.066Z,98323.75
2022-08-28T02:24:49.752Z,98341.75
2022-08-28T02:27:23.050Z,98342.59
2022-08-28T02:29:49.891Z,98346.78
2022-08-28T02:32:24.068Z,98343.03
2022-08-28T02:34:50.633Z,98342.44
2022-08-28T02:37:24.088Z,98333.13
2022-08-28T02:39:59.821Z,98332.09
2022-08-28T02:42:33.247Z,98326.53
2022-08-28T02:45:20.048Z,98324.47
2022-08-28T02:47:54.074Z,98314.94
2022-08-28T02:50:21.035Z,98317.97
2022-08-28T02:52:54.073Z,98322.22
2022-08-28T02:55:21.097Z,98316.28
2022-08-28T02:57:55.072Z,98316.38
2022-08-28T03:00:23.363Z,98306.31
2022-08-28T03:02:57.116Z,98321.50
2022-08-28T03:05:24.751Z,98330.19
2022-08-28T03:08:00.064Z,98338.59
2022-08-28T03:10:26.711Z,98341.59
2022-08-28T03:13:00.039Z,98342.59
2022-08-28T03:15:26.565Z,98343.28
2022-08-28T03:18:00.095Z,98346.78
2022-08-28T03:20:33.042Z,98346.41
2022-08-28T03:23:25.135Z,98349.47
2022-08-28T03:25:59.066Z,98351.06
2022-08-28T03:28:33.079Z,98355.66
2022-08-28T03:30:59.886Z,98358.97
2022-08-28T03:33:33.059Z,98353.16
2022-08-28T03:35:59.697Z,98359.47
2022-08-28T03:38:33.037Z,98361.44
2022-08-28T03:40:59.665Z,98361.78
2022-08-28T03:43:34.100Z,98364.25
2022-08-28T03:46:14.076Z,98366.84
2022-08-28T03:48:48.048Z,98359.81
2022-08-28T03:51:29.706Z,98355.09
2022-08-28T03:53:57.640Z,98354.97
2022-08-28T03:56:25.144Z,98345.00
2022-08-28T03:58:59.053Z,98335.47
2022-08-28T04:01:33.082Z,98322.63
2022-08-28T04:04:06.047Z,98352.50
2022-08-28T04:06:39.147Z,98357.56
2022-08-28T04:09:06.651Z,98363.63
2022-08-28T04:11:37.530Z,98366.84
2022-08-28T04:14:11.058Z,98378.06
2022-08-28T04:16:45.110Z,98387.22
2022-08-28T04:19:11.826Z,98394.22
2022-08-28T04:21:46.073Z,98399.59
2022-08-28T04:24:13.402Z,98404.16
2022-08-28T04:26:48.046Z,98400.28
2022-08-28T04:29:15.051Z,98402.41
2022-08-28T04:31:48.070Z,98400.31
2022-08-28T04:34:14.756Z,98392.13
2022-08-28T04:36:48.059Z,98394.09
2022-08-28T04:39:14.726Z,98387.28
2022-08-28T04:41:48.040Z,98393.47
2022-08-28T04:44:24.257Z,98389.41
2022-08-28T04:46:58.055Z,98378.34
2022-08-28T04:49:25.845Z,98390.13
2022-08-28T04:51:59.044Z,98391.19
2022-08-28T04:54:25.738Z,98395.56
2022-08-28T04:56:59.024Z,98397.59
2022-08-28T04:59:25.634Z,98399.09
2022-08-28T05:01:52.311Z,98397.97
2022-08-28T05:04:26.064Z,98406.41
2022-08-28T05:06:52.906Z,98407.38
2022-08-28T05:09:27.025Z,98399.28
2022-08-28T05:11:53.670Z,98404.03
2022-08-28T05:14:28.046Z,98402.94
2022-08-28T05:17:04.289Z,98410.03
2022-08-28T05:19:39.033Z,98406.25
2022-08-28T05:22:05.967Z,98403.41
2022-08-28T05:24:39.037Z,98412.50
2022-08-28T05:27:06.410Z,98408.69
2022-08-28T05:29:40.196Z,98404.28
2022-08-28T05:32:07.404Z,98404.16
2022-08-28T05:34:41.055Z,98401.53
2022-08-28T05:37:08.919Z,98415.22
2022-08-28T05:39:42.043Z,98429.88
2022-08-28T05:42:08.723Z,98431.56
2022-08-28T05:44:49.020Z,98434.47
2022-08-28T05:47:22.456Z,98441.69
2022-08-28T05:49:55.084Z,98440.25
2022-08-28T05:52:21.879Z,98438.38
2022-08-28T05:54:55.037Z,98433.81
2022-08-28T05:57:21.574Z,98432.59
2022-08-28T05:59:55.094Z,98432.78
2022-08-28T06:02:21.934Z,98446.63
2022-08-28T06:04:56.092Z,98442.69
2022-08-28T06:07:23.019Z,98439.75
2022-08-28T06:09:56.088Z,98443.69
2022-08-28T06:12:22.731Z,98438.94
2022-08-28T06:14:56.044Z,98437.03
2022-08-28T06:17:23.985Z,98436.84
2022-08-28T06:19:58.076Z,98442.84
2022-08-28T06:22:35.593Z,98442.03
2022-08-28T06:25:09.089Z,98447.44
2022-08-28T06:27:46.035Z,98449.28
2022-08-28T06:30:19.013Z,98443.47
2022-08-28T06:32:47.717Z,98456.72
2022-08-28T06:35:14.276Z,98450.94
2022-08-28T06:37:47.216Z,98450.09
2022-08-28T06:40:21.050Z,98447.16
2022-08-28T06:42:54.085Z,98444.66
2022-08-28T06:45:34.451Z,98444.88
2022-08-28T06:48:14.190Z,98447.16
2022-08-28T06:50:42.175Z,98447.56
2022-08-28T06:53:17.140Z,98449.34
2022-08-28T06:55:44.373Z,98449.59
2022-08-28T06:58:19.256Z,98455.59
2022-08-28T07:00:46.004Z,98462.53
2022-08-28T07:03:20.298Z,98457.81
2022-08-28T07:05:47.107Z,98463.19
2022-08-28T07:08:20.109Z,98466.28
2022-08-28T07:10:47.618Z,98476.41
2022-08-28T07:13:21.153Z,98467.72
2022-08-28T07:15:55.367Z,98473.44
2022-08-28T07:18:22.413Z,98468.06
2022-08-28T07:21:02.003Z,98474.34
2022-08-28T07:23:29.318Z,98482.00
2022-08-28T07:26:04.040Z,98482.63
2022-08-28T07:28:30.864Z,98490.50
2022-08-28T07:31:04.676Z,98488.81
2022-08-28T07:33:39.037Z,98487.59
2022-08-28T07:36:29.415Z,98493.41
2022-08-28T07:38:57.826Z,98483.94
2022-08-28T07:41:32.012Z,98488.06
2022-08-28T07:44:24.135Z,98491.41
2022-08-28T07:47:06.140Z,98478.53
2022-08-28T07:49:35.632Z,98491.88
2022-08-28T07:52:16.678Z,98491.66
2022-08-28T07:54:43.315Z,98501.38
2022-08-28T07:57:17.070Z,98500.19
2022-08-28T07:59:43.624Z,98505.38
2022-08-28T08:02:17.128Z,98502.69
2022-08-28T08:04:44.311Z,98503.94
2022-08-28T08:07:18.998Z,98512.22
2022-08-28T08:09:46.823Z,98511.44
2022-08-28T08:12:22.012Z,98513.06
2022-08-28T08:14:49.649Z,98511.19
2022-08-28T08:17:23.038Z,98516.16
2022-08-28T08:19:49.835Z,98514.69
2022-08-28T08:22:23.018Z,98510.97
2022-08-28T08:24:49.575Z,98517.56
2022-08-28T08:27:23.001Z,98508.06
2022-08-28T08:29:57.079Z,98506.41
2022-08-28T08:32:23.683Z,98506.84
2022-08-28T08:34:59.051Z,98508.69
2022-08-28T08:37:32.019Z,98511.38
2022-08-28T08:39:59.335Z,98515.91
2022-08-28T08:42:34.350Z,98519.84
2022-08-28T08:45:15.064Z,98528.75
2022-08-28T08:47:58.115Z,98527.94
2022-08-28T08:50:27.245Z,98528.97
2022-08-28T08:53:16.070Z,98524.38
2022-08-28T08:55:45.328Z,98530.75
2022-08-28T08:58:44.496Z,98533.44
2022-08-28T09:01:23.662Z,98545.50
2022-08-28T09:04:05.999Z,98534.06
2022-08-28T09:06:33.026Z,98537.78
2022-08-28T09:09:09.282Z,98539.41
2022-08-28T09:11:56.393Z,98536.09
2022-08-28T09:14:43.114Z,98532.38
2022-08-28T09:17:17.124Z,98534.88
2022-08-28T09:19:43.771Z,98540.84
2022-08-28T09:22:17.111Z,98533.59
2022-08-28T09:24:43.944Z,98537.75
2022-08-28T09:27:39.596Z,98524.91
2022-08-28T09:30:08.609Z,98536.25
2022-08-28T09:32:48.026Z,98537.31
2022-08-28T09:35:48.292Z,98535.63
2022-08-28T09:38:27.620Z,98533.59
2022-08-28T09:41:27.288Z,98524.66
2022-08-28T09:44:01.032Z,98525.25
2022-08-28T09:46:44.876Z,98528.91
2022-08-28T09:49:20.386Z,98542.47
2022-08-28T09:51:47.621Z,98542.25
2022-08-28T09:54:43.051Z,98543.31
2022-08-28T09:57:09.701Z,98545.09
2022-08-28T09:59:43.008Z,98536.38
2022-08-28T10:02:35.673Z,98543.66
2022-08-28T10:05:25.817Z,98546.16
2022-08-28T10:07:57.836Z,98548.03
2022-08-28T10:10:37.025Z,98538.28
2022-08-28T10:13:09.892Z,98546.16
2022-08-28T10:15:58.517Z,98538.94
2022-08-28T10:18:40.044Z,98537.84
2022-08-28T10:21:08.046Z,98535.56
2022-08-28T10:23:47.012Z,98535.31
2022-08-28T10:26:23.017Z,98528.72
2022-08-28T10:29:11.456Z,98536.97
2022-08-28T10:32:17.045Z,98519.31
2022-08-28T10:35:23.024Z,98524.91
2022-08-28T10:38:08.804Z,98512.31
2022-08-28T10:40:43.994Z,98527.59
2022-08-28T10:43:19.988Z,98511.44
2022-08-28T10:46:01.450Z,98503.97
2022-08-28T10:48:32.430Z,98499.59
2022-08-28T10:51:05.981Z,98510.59
2022-08-28T10:53:38.407Z,98511.41
2022-08-28T10:56:31.971Z,98510.97
2022-08-28T10:58:59.340Z,98501.03
2022-08-28T11:01:35.214Z,98497.09
2022-08-28T11:17:41.019Z,98472.91
2022-08-28T11:20:25.558Z,98490.63
2022-08-28T11:23:05.051Z,98468.84
2022-08-28T11:25:45.458Z,98484.78
2022-08-28T11:28:31.060Z,98493.66
2022-08-28T11:31:08.085Z,98495.72
2022-08-28T11:33:44.039Z,98506.38
2022-08-28T11:36:12.971Z,98507.31
2022-08-28T11:39:12.035Z,98492.34
2022-08-28T11:42:06.020Z,98503.09
2022-08-28T11:44:43.706Z,98505.72
2022-08-28T11:47:42.052Z,98520.78
2022-08-28T11:50:23.564Z,98516.75
2022-08-28T11:53:00.036Z,98526.94
2022-08-28T11:55:45.059Z,98520.88
2022-08-28T11:58:51.039Z,98523.75
2022-08-28T12:01:36.046Z,98507.09
2022-08-28T12:04:12.341Z,98518.25
2022-08-28T12:06:52.027Z,98525.09
2022-08-28T12:09:39.734Z,98507.81
2022-08-28T12:12:33.034Z,98509.78
2022-08-28T12:15:02.537Z,98521.56
2022-08-28T12:17:52.999Z,98510.16
2022-08-28T12:20:45.684Z,98501.38
2022-08-28T12:23:46.025Z,98524.94
2022-08-28T12:26:29.077Z,98524.94
2022-08-28T12:29:00.321Z,98522.38
2022-08-28T12:32:22.002Z,98518.94
2022-08-28T12:35:04.062Z,98538.94
2022-08-28T12:37:39.472Z,98526.94
2022-08-28T12:40:44.100Z,98531.44
2022-08-28T12:43:19.008Z,98549.75
2022-08-28T12:46:19.073Z,98548.97
2022-08-28T12:48:50.370Z,98562.88
2022-08-28T12:51:30.024Z,98561.97
2022-08-28T12:54:02.974Z,98568.84
2022-08-28T12:56:41.009Z,98573.78
2022-08-28T12:59:27.468Z,98575.38
2022-08-28T13:02:01.098Z,98582.44
2022-08-28T13:04:45.025Z,98571.69
2022-08-28T13:07:15.603Z,98569.59
2022-08-28T13:10:04.000Z,98564.19
2022-08-28T13:12:56.662Z,98561.75
2022-08-28T13:16:02.748Z,98563.16
2022-08-28T13:18:50.009Z,98557.94
2022-08-28T13:21:33.378Z,98558.38
2022-08-28T13:24:23.596Z,98569.16
2022-08-28T13:27:14.007Z,98567.34
2022-08-28T13:29:57.133Z,98549.75
2022-08-28T13:32:34.021Z,98555.50
2022-08-28T13:35:25.577Z,98548.66
2022-08-28T13:38:05.025Z,98563.50
2022-08-28T13:40:58.391Z,98567.25
2022-08-28T13:43:35.024Z,98555.00
2022-08-28T13:46:08.058Z,98555.25
2022-08-28T13:48:40.968Z,98562.88
2022-08-28T13:51:21.158Z,98557.09
2022-08-28T13:53:49.082Z,98564.59
2022-08-28T13:56:23.026Z,98550.50
2022-08-28T13:58:57.453Z,98555.91
2022-08-28T14:01:52.086Z,98560.88
2022-08-28T14:04:18.826Z,98565.38
2022-08-28T14:06:52.175Z,98563.34
2022-08-28T14:09:19.365Z,98565.75
2022-08-28T14:11:55.984Z,98550.88
2022-08-28T14:14:28.976Z,98558.94
2022-08-28T14:17:03.128Z,98568.75
2022-08-28T14:19:37.001Z,98554.03
2022-08-28T14:22:11.015Z,98553.59
2022-08-28T14:24:43.993Z,98562.03
2022-08-28T14:27:10.805Z,98567.44
2022-08-28T14:29:38.243Z,98567.53
2022-08-28T14:32:12.027Z,98582.88
2022-08-28T14:34:44.974Z,98591.53
2022-08-28T14:37:11.765Z,98591.81
2022-08-28T14:39:45.140Z,98591.47
2022-08-28T14:42:13.044Z,98601.44
2022-08-28T14:44:47.013Z,98609.72
2022-08-28T14:47:20.030Z,98605.59
2022-08-28T14:49:53.138Z,98594.66
2022-08-28T14:52:19.969Z,98601.53
2022-08-28T14:54:53.017Z,98604.38
2022-08-28T14:57:27.005Z,98616.84
2022-08-28T14:59:53.716Z,98615.19
2022-08-28T15:02:27.043Z,98613.53
2022-08-28T15:04:54.251Z,98623.50
2022-08-28T15:07:28.982Z,98618.56
2022-08-28T15:09:55.713Z,98609.91
2022-08-28T15:12:29.012Z,98610.28
2022-08-28T15:14:57.180Z,98603.25
2022-08-28T15:17:36.992Z,98597.09
2022-08-28T15:20:12.399Z,98597.50
2022-08-28T15:22:45.986Z,98602.06
2022-08-28T15:25:12.751Z,98606.19
2022-08-28T15:27:46.024Z,98607.63
2022-08-28T15:30:12.877Z,98606.97
2022-08-28T15:32:48.966Z,98611.91
2022-08-28T15:35:16.474Z,98610.28
2022-08-28T15:37:50.069Z,98613.38
2022-08-28T15:40:36.085Z,98609.47
2022-08-28T15:43:09.024Z,98610.63
2022-08-28T15:45:37.655Z,98615.63
2022-08-28T15:48:04.508Z,98616.88
2022-08-28T15:50:37.963Z,98614.00
2022-08-28T15:53:06.170Z,98608.59
2022-08-28T15:55:40.963Z,98611.44
2022-08-28T15:58:14.532Z,98603.97
2022-08-28T16:00:49.025Z,98619.75
2022-08-28T16:03:21.974Z,98607.31
2022-08-28T16:05:54.956Z,98608.16
2022-08-28T16:08:21.749Z,98607.28
2022-08-28T16:10:50.133Z,98612.25
2022-08-28T16:13:23.973Z,98619.13
2022-08-28T16:16:11.023Z,98607.75
2022-08-28T16:18:38.109Z,98606.31
2022-08-28T16:21:05.623Z,98611.44
2022-08-28T16:23:39.989Z,98617.88
2022-08-28T16:26:08.207Z,98612.28
2022-08-28T16:28:41.979Z,98613.13
2022-08-28T16:31:19.139Z,98618.94
2022-08-28T16:33:53.979Z,98614.34
2022-08-28T16:36:26.963Z,98612.47
2022-08-28T16:39:03.498Z,98614.41
2022-08-28T16:41:38.007Z,98619.78
2022-08-28T16:44:05.561Z,98608.56
2022-08-28T16:46:39.048Z,98607.72
2022-08-28T16:49:05.829Z,98601.53
2022-08-28T16:51:38.985Z,98615.22
2022-08-28T16:54:06.967Z,98617.09
2022-08-28T16:56:40.953Z,98615.22
2022-08-28T16:59:10.562Z,98628.47
2022-08-28T17:01:45.061Z,98618.56
2022-08-28T17:04:18.968Z,98623.31
2022-08-28T17:06:52.018Z,98628.09
2022-08-28T17:09:20.963Z,98633.06
2022-08-28T17:11:57.637Z,98627.66
2022-08-28T17:14:32.975Z,98649.19
2022-08-28T17:17:20.014Z,98650.88
2022-08-28T17:19:46.761Z,98639.44
2022-08-28T17:22:38.954Z,98646.75
2022-08-28T17:25:13.540Z,98641.56
2022-08-28T17:27:48.054Z,98644.69
2022-08-28T17:30:15.599Z,98645.13
2022-08-28T17:32:48.972Z,98647.84
2022-08-28T17:35:16.062Z,98652.00
2022-08-28T17:37:50.979Z,98653.66
2022-08-28T17:40:18.044Z,98657.38
2022-08-28T17:42:51.953Z,98666.72
2022-08-28T17:45:18.691Z,98672.50
2022-08-28T17:47:45.423Z,98678.09
2022-08-28T17:50:18.981Z,98668.56
2022-08-28T17:52:51.954Z,98669.22
2022-08-28T17:55:25.960Z,98667.97
2022-08-28T17:57:52.736Z,98680.63
2022-08-28T18:00:25.971Z,98683.31
2022-08-28T18:02:53.748Z,98685.56
2022-08-28T18:05:26.963Z,98692.41
2022-08-28T18:07:53.974Z,98686.00
2022-08-28T18:10:27.985Z,98683.50
2022-08-28T18:12:54.668Z,98681.63
2022-08-28T18:15:22.228Z,98683.25
2022-08-28T18:17:56.971Z,98688.66
2022-08-28T18:20:30.959Z,98694.22
2022-08-28T18:22:57.761Z,98702.31
2022-08-28T18:25:51.203Z,98703.34
2022-08-28T18:28:28.957Z,98703.34
2022-08-28T18:30:55.786Z,98705.84
2022-08-28T18:33:30.938Z,98707.53
2022-08-28T18:35:58.270Z,98716.81
2022-08-28T18:38:34.974Z,98715.16
2022-08-28T18:41:06.846Z,98710.25
2022-08-28T18:43:39.977Z,98716.66
2022-08-28T18:46:09.276Z,98715.38
2022-08-28T18:48:44.986Z,98715.81
2022-08-28T18:51:12.628Z,98720.34
2022-08-28T18:53:42.597Z,98727.78
2022-08-28T18:56:16.957Z,98728.41
2022-08-28T18:58:44.271Z,98737.91
2022-08-28T19:01:18.073Z,98735.84
2022-08-28T19:03:45.073Z,98735.44
2022-08-28T19:06:20.013Z,98730.06
2022-08-28T19:08:46.856Z,98731.53
2022-08-28T19:11:21.012Z,98731.78
2022-08-28T19:13:54.222Z,98735.88
2022-08-28T19:16:27.988Z,98738.34
2022-08-28T19:19:02.992Z,98735.66
2022-08-28T19:21:37.960Z,98738.34
2022-08-28T19:24:05.274Z,98744.19
2022-08-28T19:26:32.164Z,98749.59
2022-08-28T19:29:04.961Z,98752.06
2022-08-28T19:31:40.021Z,98752.69
2022-08-28T19:34:11.337Z,98760.38
2022-08-28T19:36:44.955Z,98762.03
2022-08-28T19:39:12.281Z,98757.28
2022-08-28T19:41:45.948Z,98754.16
2022-08-28T19:44:12.638Z,98763.69
2022-08-28T19:46:46.001Z,98757.47
2022-08-28T19:49:18.954Z,98765.34
2022-08-28T19:51:45.714Z,98757.88
2022-08-28T19:54:21.044Z,98769.47
2022-08-28T19:56:53.938Z,98775.28
2022-08-28T19:59:25.157Z,98773.63
2022-08-28T20:01:59.959Z,98769.91
2022-08-28T20:04:32.930Z,98772.81
2022-08-28T20:07:00.733Z,98775.28
2022-08-28T20:09:34.947Z,98769.28
2022-08-28T20:12:08.930Z,98771.13
2022-08-28T20:14:35.645Z,98778.81
2022-08-28T20:17:15.934Z,98780.25
2022-08-28T20:19:59.704Z,98783.56
2022-08-28T20:22:35.945Z,98778.59
2022-08-28T20:25:07.045Z,98789.16
2022-08-28T20:27:34.112Z,98780.47
2022-08-28T20:30:11.152Z,98781.06
2022-08-28T20:32:44.914Z,98782.75
2022-08-28T20:35:22.100Z,98775.06
2022-08-28T20:37:51.321Z,98768.44
2022-08-28T20:40:27.983Z,98771.94
2022-08-28T20:42:54.965Z,98771.56
2022-08-28T20:45:22.117Z,98771.34
2022-08-28T20:47:54.950Z,98778.59
2022-08-28T20:50:21.729Z,98778.19
2022-08-28T20:52:54.985Z,98784.00
2022-08-28T20:55:21.710Z,98775.69
2022-08-28T20:57:54.943Z,98764.72
2022-08-28T21:00:21.627Z,98774.25
2022-08-28T21:02:54.917Z,98764.66
2022-08-28T21:05:28.066Z,98773.38
2022-08-28T21:08:01.913Z,98782.47
2022-08-28T21:10:28.661Z,98779.78
2022-08-28T21:13:01.949Z,98776.06
2022-08-28T21:15:29.345Z,98776.47
2022-08-28T21:18:09.983Z,98781.84
2022-08-28T21:20:45.937Z,98782.88
2022-08-28T21:23:12.856Z,98786.59
2022-08-28T21:25:48.918Z,98779.34
2022-08-28T21:28:21.925Z,98777.47
2022-08-28T21:30:54.928Z,98779.94
2022-08-28T21:33:27.959Z,98782.63
2022-08-28T21:35:54.589Z,98783.03
2022-08-28T21:38:27.965Z,98787.19
2022-08-28T21:41:00.926Z,98797.53
2022-08-28T21:43:27.580Z,98797.91
2022-08-28T21:46:07.069Z,98792.53
2022-08-28T21:48:37.332Z,98805.78
2022-08-28T21:51:15.942Z,98805.81
2022-08-28T21:53:42.804Z,98799.78
2022-08-28T21:56:16.930Z,98802.50
2022-08-28T21:58:50.073Z,98801.25
2022-08-28T22:01:17.861Z,98805.41
2022-08-28T22:03:51.909Z,98803.94
2022-08-28T22:06:20.907Z,98816.19
2022-08-28T22:08:54.915Z,98808.34
2022-08-28T22:11:25.124Z,98815.41
2022-08-28T22:14:02.915Z,98818.72
2022-08-28T22:16:35.930Z,98819.53
2022-08-28T22:19:09.294Z,98823.72
2022-08-28T22:22:00.989Z,98825.41
2022-08-28T22:24:27.680Z,98831.56
2022-08-28T22:27:00.931Z,98832.81
2022-08-28T22:29:27.674Z,98836.94
2022-08-28T22:32:00.979Z,98834.13
2022-08-28T22:34:27.742Z,98835.38
2022-08-28T22:37:00.932Z,98832.44
2022-08-28T22:39:27.663Z,98834.88
2022-08-28T22:41:54.467Z,98833.88
2022-08-28T22:44:27.916Z,98836.19
2022-08-28T22:46:54.660Z,98845.31
2022-08-28T22:49:27.887Z,98836.00
2022-08-28T22:52:00.902Z,98832.44
2022-08-28T22:54:33.895Z,98834.13
2022-08-28T22:57:06.931Z,98831.16
2022-08-28T22:59:41.080Z,98827.84
2022-08-28T23:02:08.325Z,98835.28
2022-08-28T23:04:41.935Z,98827.41
2022-08-28T23:07:09.192Z,98818.47
2022-08-28T23:09:42.924Z,98813.25
2022-08-28T23:12:09.879Z,98817.75
2022-08-28T23:14:47.781Z,98821.03
2022-08-28T23:17:22.025Z,98829.72
2022-08-28T23:19:55.893Z,98833.41
2022-08-28T23:22:23.536Z,98830.09
2022-08-28T23:24:56.958Z,98837.59
2022-08-28T23:27:38.960Z,98836.16
2022-08-28T23:30:14.994Z,98842.66
2022-08-28T23:32:41.935Z,98850.09
2022-08-28T23:35:18.072Z,98843.53
2022-08-28T23:37:48.687Z,98847.47
2022-08-28T23:40:28.950Z,98825.69
2022-08-28T23:42:57.075Z,98813.00
2022-08-28T23:45:23.997Z,98815.22
2022-08-28T23:47:57.897Z,98834.47
2022-08-28T23:50:26.547Z,98825.28
2022-08-28T23:53:00.914Z,98834.59
2022-08-28T23:55:28.887Z,98831.53
2022-08-28T23:58:02.062Z,98838.38
